TGL9304 EGPH-LFBZ
Flight info
| Callsign | TGL9304 |
|---|---|
| Flight time | 2h 9m |
| Altitude | 35000 |
| Route | GOSAM P600 FENIK L612 NAVSO DCT ADZOP DCT EGTOC DCT NOKIN N862 KARNO DCT ALHUP DCT ABWIV DCT PACSE DCT SIDHO DCT TONQU DCT MANIG DCT BADUR DCT KORER UM616 TUPAR DCT CNA DCT VAVIX DCT MAGEC |
| Aircraft | A320/M-SDE3FGHIRWY/LB1 |
Departure
| Time | 2026-04-26 15:17 |
|---|---|
| Airport | Edinburgh Airport (EGPH) |
Arrival
| Time | 2026-04-26 17:26 |
|---|---|
| Airport | Biarritz Pays Basque airport (LFBZ) |
| Time | Latitude | Longitude | Altitude | Speed | Heading |
|---|---|---|---|---|---|
| 2026-04-26 14:48 | 55.94921 | -3.36430 | 116 ft | 0 kts | 148° |
| 2026-04-26 15:06 | 55.94937 | -3.36448 | 113 ft | 4 kts | 149° |
| 2026-04-26 15:06 | 55.94956 | -3.36468 | 112 ft | 4 kts | 158° |
| 2026-04-26 15:06 | 55.94980 | -3.36474 | 111 ft | 4 kts | 207° |
| 2026-04-26 15:06 | 55.94996 | -3.36449 | 112 ft | 1 kts | 238° |
| 2026-04-26 15:10 | 55.94996 | -3.36450 | 116 ft | 1 kts | 238° |
| 2026-04-26 15:10 | 55.94983 | -3.36489 | 112 ft | 7 kts | 238° |
| 2026-04-26 15:11 | 55.94949 | -3.36586 | 116 ft | 11 kts | 238° |
| 2026-04-26 15:11 | 55.94907 | -3.36711 | 116 ft | 9 kts | 238° |
| 2026-04-26 15:11 | 55.94902 | -3.36795 | 114 ft | 7 kts | 306° |
| 2026-04-26 15:11 | 55.94928 | -3.36883 | 114 ft | 9 kts | 265° |
| 2026-04-26 15:12 | 55.94893 | -3.36993 | 113 ft | 12 kts | 238° |
| 2026-04-26 15:12 | 55.94846 | -3.37130 | 112 ft | 14 kts | 238° |
| 2026-04-26 15:12 | 55.94790 | -3.37293 | 115 ft | 17 kts | 238° |
| 2026-04-26 15:12 | 55.94726 | -3.37479 | 113 ft | 19 kts | 238° |
| 2026-04-26 15:13 | 55.94658 | -3.37687 | 115 ft | 20 kts | 238° |
| 2026-04-26 15:13 | 55.94580 | -3.37912 | 115 ft | 22 kts | 238° |
| 2026-04-26 15:13 | 55.94499 | -3.38156 | 114 ft | 24 kts | 240° |
| 2026-04-26 15:13 | 55.94411 | -3.38411 | 115 ft | 25 kts | 238° |
| 2026-04-26 15:14 | 55.94343 | -3.38617 | 113 ft | 17 kts | 239° |
| 2026-04-26 15:14 | 55.94293 | -3.38770 | 115 ft | 9 kts | 239° |
| 2026-04-26 15:14 | 55.94287 | -3.38845 | 115 ft | 1 kts | 287° |
| 2026-04-26 15:14 | 55.94302 | -3.38877 | 112 ft | 8 kts | 318° |
| 2026-04-26 15:15 | 55.94362 | -3.38949 | 114 ft | 13 kts | 327° |
| 2026-04-26 15:15 | 55.94434 | -3.38916 | 114 ft | 8 kts | 58° |
| 2026-04-26 15:15 | 55.94439 | -3.38903 | 112 ft | 0 kts | 58° |
| 2026-04-26 15:16 | 55.94445 | -3.38886 | 112 ft | 13 kts | 58° |
| 2026-04-26 15:16 | 55.94629 | -3.38339 | 111 ft | 86 kts | 58° |
| 2026-04-26 15:16 | 55.95042 | -3.37120 | 112 ft | 141 kts | 59° |
| 2026-04-26 15:16 | 55.95577 | -3.35537 | 510 ft | 150 kts | 59° |
| 2026-04-26 15:17 | 55.96133 | -3.34007 | 1159 ft | 147 kts | 56° |
| 2026-04-26 15:17 | 55.96594 | -3.32999 | 1335 ft | 165 kts | 43° |
| 2026-04-26 15:17 | 55.97755 | -3.31219 | 2174 ft | 168 kts | 38° |
| 2026-04-26 15:17 | 55.98716 | -3.29811 | 2537 ft | 189 kts | 39° |
| 2026-04-26 15:18 | 55.99800 | -3.28265 | 2994 ft | 210 kts | 28° |
| 2026-04-26 15:18 | 56.01234 | -3.27648 | 3447 ft | 224 kts | 353° |
| 2026-04-26 15:18 | 56.02739 | -3.28576 | 3886 ft | 237 kts | 320° |
| 2026-04-26 15:18 | 56.03755 | -3.30893 | 4667 ft | 235 kts | 288° |
| 2026-04-26 15:19 | 56.03962 | -3.33774 | 5253 ft | 248 kts | 260° |
| 2026-04-26 15:19 | 56.03449 | -3.36812 | 5635 ft | 259 kts | 247° |
| 2026-04-26 15:19 | 56.02738 | -3.39767 | 5888 ft | 259 kts | 246° |
| 2026-04-26 15:19 | 56.02069 | -3.42779 | 6002 ft | 262 kts | 249° |
| 2026-04-26 15:20 | 56.01495 | -3.45855 | 5992 ft | 260 kts | 252° |
| 2026-04-26 15:20 | 56.01003 | -3.48966 | 5997 ft | 260 kts | 254° |
| 2026-04-26 15:20 | 56.00551 | -3.52097 | 6003 ft | 260 kts | 255° |
| 2026-04-26 15:20 | 56.00111 | -3.55233 | 5990 ft | 261 kts | 255° |
| 2026-04-26 15:21 | 55.99672 | -3.58371 | 6003 ft | 260 kts | 255° |
| 2026-04-26 15:21 | 55.99229 | -3.61511 | 6006 ft | 261 kts | 255° |
| 2026-04-26 15:21 | 55.98785 | -3.64646 | 5997 ft | 260 kts | 255° |
| 2026-04-26 15:21 | 55.98338 | -3.67777 | 5992 ft | 260 kts | 255° |
| 2026-04-26 15:22 | 55.97892 | -3.70901 | 6005 ft | 260 kts | 255° |
| 2026-04-26 15:22 | 55.97441 | -3.74032 | 6007 ft | 260 kts | 255° |
| 2026-04-26 15:22 | 55.96988 | -3.77169 | 5990 ft | 261 kts | 255° |
| 2026-04-26 15:22 | 55.96537 | -3.80302 | 5989 ft | 260 kts | 255° |
| 2026-04-26 15:23 | 55.96085 | -3.83430 | 5990 ft | 260 kts | 255° |
| 2026-04-26 15:23 | 55.95633 | -3.86556 | 5995 ft | 260 kts | 255° |
| 2026-04-26 15:23 | 55.95180 | -3.89677 | 5998 ft | 260 kts | 254° |
| 2026-04-26 15:23 | 55.94724 | -3.92808 | 6009 ft | 260 kts | 255° |
| 2026-04-26 15:24 | 55.94269 | -3.95933 | 5998 ft | 261 kts | 254° |
| 2026-04-26 15:24 | 55.93734 | -3.99016 | 6013 ft | 260 kts | 246° |
| 2026-04-26 15:24 | 55.92850 | -4.01823 | 6003 ft | 260 kts | 233° |
| 2026-04-26 15:24 | 55.91641 | -4.04213 | 6007 ft | 260 kts | 223° |
| 2026-04-26 15:25 | 55.90245 | -4.06279 | 6007 ft | 261 kts | 218° |
| 2026-04-26 15:25 | 55.89272 | -4.07535 | 6008 ft | 261 kts | 216° |
| 2026-04-26 15:25 | 55.87263 | -4.09965 | 6020 ft | 262 kts | 214° |
| 2026-04-26 15:25 | 55.85749 | -4.11763 | 6003 ft | 263 kts | 214° |
| 2026-04-26 15:26 | 55.84229 | -4.13576 | 6016 ft | 262 kts | 215° |
| 2026-04-26 15:26 | 55.82726 | -4.15380 | 6026 ft | 260 kts | 215° |
| 2026-04-26 15:26 | 55.81226 | -4.17187 | 6016 ft | 261 kts | 215° |
| 2026-04-26 15:26 | 55.79725 | -4.19003 | 6012 ft | 261 kts | 215° |
| 2026-04-26 15:27 | 55.78224 | -4.20823 | 6014 ft | 262 kts | 215° |
| 2026-04-26 15:27 | 55.76723 | -4.22683 | 6248 ft | 265 kts | 216° |
| 2026-04-26 15:27 | 55.75216 | -4.24567 | 7053 ft | 264 kts | 216° |
| 2026-04-26 15:27 | 55.73724 | -4.26429 | 8094 ft | 262 kts | 215° |
| 2026-04-26 15:28 | 55.72065 | -4.27762 | 9008 ft | 266 kts | 193° |
| 2026-04-26 15:28 | 55.70198 | -4.27696 | 9900 ft | 276 kts | 168° |
| 2026-04-26 15:28 | 55.68422 | -4.26256 | 10631 ft | 289 kts | 155° |
| 2026-04-26 15:28 | 55.66593 | -4.24441 | 10918 ft | 313 kts | 154° |
| 2026-04-26 15:29 | 55.64627 | -4.22472 | 11224 ft | 334 kts | 154° |
| 2026-04-26 15:29 | 55.62583 | -4.20430 | 11918 ft | 340 kts | 154° |
| 2026-04-26 15:29 | 55.58418 | -4.16316 | 13393 ft | 350 kts | 154° |
| 2026-04-26 15:30 | 55.54061 | -4.12058 | 14783 ft | 360 kts | 154° |
| 2026-04-26 15:30 | 55.51852 | -4.09905 | 15463 ft | 365 kts | 154° |
| 2026-04-26 15:30 | 55.49615 | -4.07730 | 16109 ft | 369 kts | 154° |
| 2026-04-26 15:31 | 55.47357 | -4.05535 | 16760 ft | 373 kts | 154° |
| 2026-04-26 15:31 | 55.42760 | -4.01077 | 18033 ft | 382 kts | 154° |
| 2026-04-26 15:31 | 55.40416 | -3.98809 | 18640 ft | 386 kts | 154° |
| 2026-04-26 15:32 | 55.37285 | -3.95781 | 19436 ft | 389 kts | 154° |
| 2026-04-26 15:32 | 55.33279 | -3.91916 | 20386 ft | 394 kts | 154° |
| 2026-04-26 15:32 | 55.30865 | -3.89591 | 20953 ft | 398 kts | 154° |
| 2026-04-26 15:33 | 55.28464 | -3.87283 | 21500 ft | 400 kts | 154° |
| 2026-04-26 15:33 | 55.26010 | -3.84928 | 22054 ft | 404 kts | 154° |
| 2026-04-26 15:33 | 55.23536 | -3.82573 | 22629 ft | 405 kts | 156° |
| 2026-04-26 15:33 | 55.20954 | -3.80603 | 23170 ft | 405 kts | 163° |
| 2026-04-26 15:34 | 55.18264 | -3.79104 | 23709 ft | 407 kts | 166° |
| 2026-04-26 15:34 | 55.15515 | -3.77616 | 24191 ft | 410 kts | 166° |
| 2026-04-26 15:34 | 55.12823 | -3.76150 | 24675 ft | 411 kts | 166° |
| 2026-04-26 15:34 | 55.10086 | -3.74655 | 25159 ft | 413 kts | 166° |
| 2026-04-26 15:35 | 55.07336 | -3.73152 | 25615 ft | 415 kts | 166° |
| 2026-04-26 15:35 | 55.04575 | -3.71645 | 26059 ft | 417 kts | 167° |
| 2026-04-26 15:35 | 55.01761 | -3.70110 | 26510 ft | 419 kts | 167° |
| 2026-04-26 15:35 | 54.99010 | -3.68612 | 26931 ft | 421 kts | 167° |
| 2026-04-26 15:36 | 54.96210 | -3.67089 | 27354 ft | 423 kts | 167° |
| 2026-04-26 15:36 | 54.93390 | -3.65559 | 27778 ft | 425 kts | 167° |
| 2026-04-26 15:36 | 54.90565 | -3.64026 | 28177 ft | 427 kts | 167° |
| 2026-04-26 15:36 | 54.87725 | -3.62488 | 28573 ft | 428 kts | 167° |
| 2026-04-26 15:37 | 54.84875 | -3.60947 | 28949 ft | 430 kts | 168° |
| 2026-04-26 15:37 | 54.82012 | -3.59402 | 29307 ft | 432 kts | 168° |
| 2026-04-26 15:37 | 54.79136 | -3.57852 | 29650 ft | 433 kts | 168° |
| 2026-04-26 15:37 | 54.76250 | -3.56299 | 29974 ft | 436 kts | 168° |
| 2026-04-26 15:38 | 54.73344 | -3.54738 | 30291 ft | 438 kts | 168° |
| 2026-04-26 15:38 | 54.70431 | -3.53175 | 30562 ft | 440 kts | 168° |
| 2026-04-26 15:38 | 54.67499 | -3.51605 | 30824 ft | 443 kts | 168° |
| 2026-04-26 15:38 | 54.64548 | -3.50027 | 31092 ft | 445 kts | 168° |
| 2026-04-26 15:39 | 54.61579 | -3.48442 | 31360 ft | 447 kts | 168° |
| 2026-04-26 15:39 | 54.58607 | -3.46856 | 31694 ft | 448 kts | 168° |
| 2026-04-26 15:39 | 54.55632 | -3.45269 | 32027 ft | 448 kts | 168° |
| 2026-04-26 15:39 | 54.54621 | -3.44732 | 32147 ft | 447 kts | 168° |
| 2026-04-26 15:40 | 54.49686 | -3.42108 | 32738 ft | 447 kts | 168° |
| 2026-04-26 15:40 | 54.46717 | -3.40534 | 33098 ft | 446 kts | 169° |
| 2026-04-26 15:40 | 54.43753 | -3.38965 | 33456 ft | 445 kts | 169° |
| 2026-04-26 15:40 | 54.40797 | -3.37402 | 33802 ft | 444 kts | 169° |
| 2026-04-26 15:41 | 54.37844 | -3.35844 | 34145 ft | 443 kts | 169° |
| 2026-04-26 15:41 | 54.34902 | -3.34293 | 34452 ft | 442 kts | 169° |
| 2026-04-26 15:41 | 54.31957 | -3.32745 | 34697 ft | 443 kts | 169° |
| 2026-04-26 15:41 | 54.29015 | -3.31202 | 34935 ft | 443 kts | 169° |
| 2026-04-26 15:42 | 54.27066 | -3.30180 | 35083 ft | 443 kts | 169° |
| 2026-04-26 15:42 | 54.24115 | -3.28633 | 35222 ft | 443 kts | 169° |
| 2026-04-26 15:42 | 54.18207 | -3.25816 | 35269 ft | 437 kts | 174° |
| 2026-04-26 15:43 | 54.12214 | -3.24569 | 35272 ft | 433 kts | 180° |
| 2026-04-26 15:44 | 54.03221 | -3.23208 | 35268 ft | 433 kts | 180° |
| 2026-04-26 15:44 | 53.94261 | -3.20561 | 35268 ft | 438 kts | 172° |
| 2026-04-26 15:45 | 53.85339 | -3.17140 | 35260 ft | 438 kts | 173° |
| 2026-04-26 15:46 | 53.76405 | -3.13765 | 35260 ft | 438 kts | 172° |
| 2026-04-26 15:46 | 53.71456 | -3.11903 | 35263 ft | 439 kts | 172° |
| 2026-04-26 15:47 | 53.61510 | -3.08174 | 35262 ft | 439 kts | 172° |
| 2026-04-26 15:48 | 53.55554 | -3.05950 | 35262 ft | 439 kts | 172° |
| 2026-04-26 15:48 | 53.49585 | -3.03727 | 35264 ft | 439 kts | 172° |
| 2026-04-26 15:49 | 53.43617 | -3.01510 | 35264 ft | 440 kts | 172° |
| 2026-04-26 15:49 | 53.37642 | -2.99297 | 35266 ft | 440 kts | 172° |
| 2026-04-26 15:50 | 53.31671 | -2.97093 | 35266 ft | 440 kts | 172° |
| 2026-04-26 15:50 | 53.25682 | -2.94887 | 35268 ft | 440 kts | 172° |
| 2026-04-26 15:51 | 53.19700 | -2.92691 | 35269 ft | 440 kts | 172° |
| 2026-04-26 15:51 | 53.13712 | -2.90498 | 35270 ft | 441 kts | 172° |
| 2026-04-26 15:52 | 53.07695 | -2.88737 | 35268 ft | 436 kts | 179° |
| 2026-04-26 15:52 | 53.01675 | -2.88738 | 35266 ft | 432 kts | 187° |
| 2026-04-26 15:53 | 52.95678 | -2.89299 | 35268 ft | 432 kts | 187° |
| 2026-04-26 15:53 | 52.89678 | -2.89845 | 35267 ft | 431 kts | 189° |
| 2026-04-26 15:54 | 52.83754 | -2.91157 | 35266 ft | 429 kts | 192° |
| 2026-04-26 15:54 | 52.77839 | -2.92566 | 35266 ft | 430 kts | 192° |
| 2026-04-26 15:55 | 52.71922 | -2.93950 | 35269 ft | 430 kts | 191° |
| 2026-04-26 15:55 | 52.65924 | -2.94586 | 35272 ft | 432 kts | 186° |
| 2026-04-26 15:56 | 52.59913 | -2.95064 | 35275 ft | 432 kts | 186° |
| 2026-04-26 15:56 | 52.53903 | -2.95557 | 35279 ft | 433 kts | 186° |
| 2026-04-26 15:57 | 52.47884 | -2.96053 | 35280 ft | 433 kts | 186° |
| 2026-04-26 15:57 | 52.41868 | -2.96547 | 35278 ft | 433 kts | 186° |
| 2026-04-26 15:58 | 52.35853 | -2.97040 | 35278 ft | 433 kts | 186° |
| 2026-04-26 15:58 | 52.29839 | -2.97532 | 35281 ft | 433 kts | 186° |
| 2026-04-26 15:59 | 52.23815 | -2.98023 | 35283 ft | 433 kts | 186° |
| 2026-04-26 15:59 | 52.17794 | -2.98513 | 35286 ft | 434 kts | 186° |
| 2026-04-26 16:00 | 52.11768 | -2.99001 | 35280 ft | 434 kts | 186° |
| 2026-04-26 16:00 | 52.05754 | -2.99487 | 35284 ft | 432 kts | 186° |
| 2026-04-26 16:01 | 51.99739 | -2.99972 | 35292 ft | 433 kts | 186° |
| 2026-04-26 16:01 | 51.93716 | -3.00456 | 35284 ft | 433 kts | 186° |
| 2026-04-26 16:02 | 51.87701 | -3.00985 | 35290 ft | 433 kts | 189° |
| 2026-04-26 16:02 | 51.81742 | -3.02210 | 35293 ft | 432 kts | 191° |
| 2026-04-26 16:03 | 51.75772 | -3.03472 | 35304 ft | 433 kts | 191° |
| 2026-04-26 16:03 | 51.69786 | -3.04722 | 35299 ft | 434 kts | 191° |
| 2026-04-26 16:04 | 51.63820 | -3.05960 | 35294 ft | 431 kts | 191° |
| 2026-04-26 16:04 | 51.57853 | -3.07198 | 35288 ft | 433 kts | 191° |
| 2026-04-26 16:05 | 51.51881 | -3.08432 | 35272 ft | 433 kts | 191° |
| 2026-04-26 16:05 | 51.45911 | -3.09663 | 35267 ft | 432 kts | 190° |
| 2026-04-26 16:06 | 51.39938 | -3.10892 | 35275 ft | 433 kts | 190° |
| 2026-04-26 16:06 | 51.33959 | -3.12118 | 35274 ft | 433 kts | 190° |
| 2026-04-26 16:07 | 51.27977 | -3.13342 | 35276 ft | 433 kts | 190° |
| 2026-04-26 16:07 | 51.21992 | -3.14563 | 35278 ft | 433 kts | 190° |
| 2026-04-26 16:08 | 51.16009 | -3.15780 | 35277 ft | 433 kts | 190° |
| 2026-04-26 16:08 | 51.10026 | -3.16995 | 35277 ft | 433 kts | 190° |
| 2026-04-26 16:09 | 51.04046 | -3.18205 | 35276 ft | 433 kts | 190° |
| 2026-04-26 16:09 | 50.98091 | -3.19407 | 35265 ft | 431 kts | 190° |
| 2026-04-26 16:10 | 50.92143 | -3.20605 | 35266 ft | 431 kts | 190° |
| 2026-04-26 16:10 | 50.86198 | -3.21799 | 35266 ft | 431 kts | 190° |
| 2026-04-26 16:11 | 50.80256 | -3.22989 | 35264 ft | 430 kts | 190° |
| 2026-04-26 16:11 | 50.74313 | -3.24176 | 35265 ft | 430 kts | 190° |
| 2026-04-26 16:12 | 50.68379 | -3.25358 | 35262 ft | 430 kts | 190° |
| 2026-04-26 16:12 | 50.59522 | -3.27119 | 35256 ft | 429 kts | 190° |
| 2026-04-26 16:13 | 50.53601 | -3.28291 | 35250 ft | 429 kts | 190° |
| 2026-04-26 16:13 | 50.47679 | -3.29461 | 35249 ft | 429 kts | 190° |
| 2026-04-26 16:14 | 50.41755 | -3.30628 | 35247 ft | 429 kts | 190° |
| 2026-04-26 16:15 | 50.32763 | -3.30766 | 35243 ft | 434 kts | 180° |
| 2026-04-26 16:15 | 50.26732 | -3.30196 | 35240 ft | 434 kts | 180° |
| 2026-04-26 16:16 | 50.17680 | -3.29384 | 35238 ft | 435 kts | 180° |
| 2026-04-26 16:16 | 50.11641 | -3.28849 | 35238 ft | 435 kts | 180° |
| 2026-04-26 16:17 | 50.05588 | -3.28314 | 35236 ft | 436 kts | 180° |
| 2026-04-26 16:17 | 49.99530 | -3.27780 | 35237 ft | 436 kts | 180° |
| 2026-04-26 16:18 | 49.90429 | -3.26979 | 35238 ft | 437 kts | 180° |
| 2026-04-26 16:19 | 49.81311 | -3.26180 | 35235 ft | 438 kts | 180° |
| 2026-04-26 16:20 | 49.72234 | -3.24120 | 35234 ft | 441 kts | 172° |
| 2026-04-26 16:20 | 49.63176 | -3.21450 | 35231 ft | 442 kts | 172° |
| 2026-04-26 16:21 | 49.57129 | -3.19688 | 35221 ft | 442 kts | 172° |
| 2026-04-26 16:21 | 49.51078 | -3.17932 | 35224 ft | 443 kts | 172° |
| 2026-04-26 16:22 | 49.45022 | -3.16178 | 35224 ft | 443 kts | 172° |
| 2026-04-26 16:22 | 49.38960 | -3.14427 | 35213 ft | 443 kts | 172° |
| 2026-04-26 16:23 | 49.32896 | -3.12679 | 35220 ft | 444 kts | 172° |
| 2026-04-26 16:23 | 49.27855 | -3.11230 | 35206 ft | 444 kts | 172° |
| 2026-04-26 16:24 | 49.21781 | -3.09487 | 35217 ft | 444 kts | 172° |
| 2026-04-26 16:24 | 49.15706 | -3.07749 | 35218 ft | 444 kts | 172° |
| 2026-04-26 16:25 | 49.09629 | -3.06015 | 35216 ft | 445 kts | 172° |
| 2026-04-26 16:25 | 49.03542 | -3.04282 | 35213 ft | 445 kts | 172° |
| 2026-04-26 16:26 | 48.98326 | -3.02800 | 35207 ft | 445 kts | 172° |
| 2026-04-26 16:26 | 48.92236 | -3.01074 | 35208 ft | 445 kts | 172° |
| 2026-04-26 16:27 | 48.86146 | -2.99352 | 35205 ft | 445 kts | 172° |
| 2026-04-26 16:27 | 48.80048 | -2.97633 | 35206 ft | 446 kts | 172° |
| 2026-04-26 16:28 | 48.73949 | -2.95917 | 35207 ft | 446 kts | 172° |
| 2026-04-26 16:28 | 48.67892 | -2.93719 | 35213 ft | 449 kts | 166° |
| 2026-04-26 16:29 | 48.61900 | -2.91016 | 35212 ft | 450 kts | 166° |
| 2026-04-26 16:29 | 48.55895 | -2.88328 | 35216 ft | 450 kts | 166° |
| 2026-04-26 16:30 | 48.49880 | -2.85651 | 35222 ft | 451 kts | 166° |
| 2026-04-26 16:30 | 48.43859 | -2.82980 | 35216 ft | 451 kts | 166° |
| 2026-04-26 16:31 | 48.37837 | -2.80314 | 35210 ft | 452 kts | 166° |
| 2026-04-26 16:31 | 48.31806 | -2.77650 | 35206 ft | 452 kts | 166° |
| 2026-04-26 16:32 | 48.26794 | -2.75443 | 35195 ft | 452 kts | 166° |
| 2026-04-26 16:32 | 48.19741 | -2.72343 | 35183 ft | 452 kts | 166° |
| 2026-04-26 16:33 | 48.13705 | -2.69698 | 35178 ft | 452 kts | 166° |
| 2026-04-26 16:33 | 48.07665 | -2.67058 | 35174 ft | 452 kts | 166° |
| 2026-04-26 16:34 | 48.01622 | -2.64422 | 35174 ft | 453 kts | 166° |
| 2026-04-26 16:34 | 47.95570 | -2.61788 | 35179 ft | 453 kts | 166° |
| 2026-04-26 16:35 | 47.89519 | -2.59162 | 35175 ft | 453 kts | 166° |
| 2026-04-26 16:35 | 47.83461 | -2.56539 | 35177 ft | 453 kts | 166° |
| 2026-04-26 16:36 | 47.77395 | -2.53919 | 35176 ft | 454 kts | 166° |
| 2026-04-26 16:36 | 47.71383 | -2.51049 | 35177 ft | 456 kts | 157° |
| 2026-04-26 16:37 | 47.66104 | -2.45825 | 35170 ft | 460 kts | 137° |
| 2026-04-26 16:37 | 47.61849 | -2.38709 | 35167 ft | 462 kts | 131° |
| 2026-04-26 16:38 | 47.57653 | -2.31505 | 35170 ft | 462 kts | 132° |
| 2026-04-26 16:38 | 47.53439 | -2.24313 | 35177 ft | 463 kts | 132° |
| 2026-04-26 16:39 | 47.49213 | -2.17125 | 35185 ft | 463 kts | 132° |
| 2026-04-26 16:39 | 47.44979 | -2.09943 | 35192 ft | 464 kts | 132° |
| 2026-04-26 16:40 | 47.40764 | -2.02809 | 35190 ft | 464 kts | 132° |
| 2026-04-26 16:40 | 47.36488 | -1.95592 | 35193 ft | 464 kts | 132° |
| 2026-04-26 16:41 | 47.32238 | -1.88431 | 35187 ft | 464 kts | 132° |
| 2026-04-26 16:41 | 47.27989 | -1.81267 | 35169 ft | 464 kts | 132° |
| 2026-04-26 16:42 | 47.23737 | -1.74120 | 35168 ft | 464 kts | 132° |
| 2026-04-26 16:42 | 47.19482 | -1.66987 | 35166 ft | 463 kts | 132° |
| 2026-04-26 16:43 | 47.15124 | -1.60018 | 35165 ft | 462 kts | 138° |
| 2026-04-26 16:43 | 47.10336 | -1.53727 | 35161 ft | 462 kts | 139° |
| 2026-04-26 16:44 | 47.05551 | -1.47450 | 35159 ft | 461 kts | 139° |
| 2026-04-26 16:44 | 47.00769 | -1.41184 | 35152 ft | 461 kts | 139° |
| 2026-04-26 16:45 | 46.96019 | -1.34975 | 35161 ft | 461 kts | 139° |
| 2026-04-26 16:45 | 46.91209 | -1.28686 | 35168 ft | 460 kts | 139° |
| 2026-04-26 16:46 | 46.86438 | -1.22461 | 35170 ft | 460 kts | 139° |
| 2026-04-26 16:46 | 46.81661 | -1.16247 | 35171 ft | 460 kts | 139° |
| 2026-04-26 16:47 | 46.76885 | -1.10049 | 35172 ft | 459 kts | 139° |
| 2026-04-26 16:47 | 46.72106 | -1.03862 | 35170 ft | 459 kts | 139° |
| 2026-04-26 16:48 | 46.67326 | -0.97689 | 35168 ft | 459 kts | 140° |
| 2026-04-26 16:48 | 46.62543 | -0.91528 | 35168 ft | 459 kts | 140° |
| 2026-04-26 16:49 | 46.57759 | -0.85379 | 35165 ft | 459 kts | 140° |
| 2026-04-26 16:49 | 46.52984 | -0.79224 | 35163 ft | 459 kts | 140° |
| 2026-04-26 16:50 | 46.48209 | -0.73073 | 35164 ft | 459 kts | 140° |
| 2026-04-26 16:50 | 46.43176 | -0.67457 | 35165 ft | 455 kts | 151° |
| 2026-04-26 16:51 | 46.37441 | -0.63702 | 35162 ft | 451 kts | 165° |
| 2026-04-26 16:51 | 46.31503 | -0.61002 | 35156 ft | 450 kts | 165° |
| 2026-04-26 16:52 | 46.26502 | -0.58703 | 35163 ft | 450 kts | 165° |
| 2026-04-26 16:52 | 46.19572 | -0.55516 | 35155 ft | 449 kts | 165° |
| 2026-04-26 16:53 | 46.13616 | -0.52786 | 35158 ft | 449 kts | 165° |
| 2026-04-26 16:53 | 46.07665 | -0.50064 | 35150 ft | 448 kts | 165° |
| 2026-04-26 16:54 | 46.01680 | -0.47334 | 35156 ft | 448 kts | 165° |
| 2026-04-26 16:54 | 45.95747 | -0.44633 | 35152 ft | 447 kts | 165° |
| 2026-04-26 16:55 | 45.89856 | -0.41957 | 35151 ft | 447 kts | 166° |
| 2026-04-26 16:55 | 45.83936 | -0.39274 | 35154 ft | 446 kts | 166° |
| 2026-04-26 16:56 | 45.75067 | -0.35266 | 35160 ft | 445 kts | 166° |
| 2026-04-26 16:57 | 45.69146 | -0.32759 | 35161 ft | 441 kts | 172° |
| 2026-04-26 16:57 | 45.60119 | -0.32770 | 35153 ft | 430 kts | 194° |
| 2026-04-26 16:58 | 45.56195 | -0.33914 | 35156 ft | 430 kts | 194° |
| 2026-04-26 16:59 | 45.45467 | -0.36950 | 35150 ft | 429 kts | 194° |
| 2026-04-26 17:00 | 45.33758 | -0.40239 | 35140 ft | 428 kts | 194° |
| 2026-04-26 17:00 | 45.24988 | -0.42695 | 35149 ft | 428 kts | 194° |
| 2026-04-26 17:01 | 45.19142 | -0.44328 | 35145 ft | 428 kts | 194° |
| 2026-04-26 17:01 | 45.13341 | -0.45945 | 35146 ft | 428 kts | 194° |
| 2026-04-26 17:02 | 45.07495 | -0.47570 | 35142 ft | 428 kts | 194° |
| 2026-04-26 17:02 | 45.04579 | -0.48380 | 34958 ft | 426 kts | 194° |
| 2026-04-26 17:02 | 45.01672 | -0.49186 | 34501 ft | 425 kts | 194° |
| 2026-04-26 17:03 | 44.98766 | -0.49991 | 33754 ft | 427 kts | 194° |
| 2026-04-26 17:03 | 44.95828 | -0.50806 | 32663 ft | 434 kts | 194° |
| 2026-04-26 17:03 | 44.92842 | -0.51634 | 31499 ft | 443 kts | 194° |
| 2026-04-26 17:03 | 44.89794 | -0.52477 | 30468 ft | 448 kts | 194° |
| 2026-04-26 17:04 | 44.86723 | -0.53324 | 29371 ft | 451 kts | 194° |
| 2026-04-26 17:04 | 44.83641 | -0.54173 | 28483 ft | 450 kts | 193° |
| 2026-04-26 17:04 | 44.80588 | -0.55011 | 27769 ft | 445 kts | 193° |
| 2026-04-26 17:04 | 44.77558 | -0.55844 | 27034 ft | 442 kts | 193° |
| 2026-04-26 17:05 | 44.74553 | -0.56670 | 26316 ft | 438 kts | 193° |
| 2026-04-26 17:05 | 44.71569 | -0.57490 | 25606 ft | 435 kts | 193° |
| 2026-04-26 17:05 | 44.69606 | -0.58028 | 25159 ft | 433 kts | 193° |
| 2026-04-26 17:05 | 44.66659 | -0.58837 | 24486 ft | 430 kts | 193° |
| 2026-04-26 17:06 | 44.63731 | -0.59639 | 23830 ft | 427 kts | 193° |
| 2026-04-26 17:06 | 44.60819 | -0.60436 | 23087 ft | 425 kts | 193° |
| 2026-04-26 17:06 | 44.57932 | -0.61224 | 22376 ft | 421 kts | 193° |
| 2026-04-26 17:06 | 44.55068 | -0.62006 | 21679 ft | 418 kts | 193° |
| 2026-04-26 17:07 | 44.52225 | -0.62781 | 20985 ft | 415 kts | 192° |
| 2026-04-26 17:07 | 44.49403 | -0.63550 | 20308 ft | 412 kts | 192° |
| 2026-04-26 17:07 | 44.46597 | -0.64313 | 19657 ft | 409 kts | 192° |
| 2026-04-26 17:07 | 44.43807 | -0.65072 | 19004 ft | 407 kts | 192° |
| 2026-04-26 17:08 | 44.41040 | -0.65823 | 18391 ft | 404 kts | 192° |
| 2026-04-26 17:08 | 44.38291 | -0.66568 | 17708 ft | 401 kts | 192° |
| 2026-04-26 17:08 | 44.35566 | -0.67306 | 17067 ft | 397 kts | 192° |
| 2026-04-26 17:08 | 44.32879 | -0.68033 | 16536 ft | 390 kts | 192° |
| 2026-04-26 17:09 | 44.30233 | -0.68773 | 16011 ft | 384 kts | 195° |
| 2026-04-26 17:09 | 44.28516 | -0.69498 | 15663 ft | 380 kts | 201° |
| 2026-04-26 17:09 | 44.25422 | -0.71640 | 14988 ft | 372 kts | 214° |
| 2026-04-26 17:09 | 44.23298 | -0.73678 | 14482 ft | 368 kts | 216° |
| 2026-04-26 17:10 | 44.21204 | -0.75696 | 13986 ft | 364 kts | 216° |
| 2026-04-26 17:10 | 44.19127 | -0.77687 | 13455 ft | 360 kts | 216° |
| 2026-04-26 17:10 | 44.17075 | -0.79646 | 12975 ft | 355 kts | 216° |
| 2026-04-26 17:10 | 44.15050 | -0.81576 | 12510 ft | 351 kts | 216° |
| 2026-04-26 17:11 | 44.13050 | -0.83481 | 12020 ft | 346 kts | 216° |
| 2026-04-26 17:11 | 44.11072 | -0.85364 | 11549 ft | 343 kts | 216° |
| 2026-04-26 17:11 | 44.09115 | -0.87226 | 11083 ft | 339 kts | 216° |
| 2026-04-26 17:11 | 44.07176 | -0.89069 | 10623 ft | 336 kts | 216° |
| 2026-04-26 17:12 | 44.03464 | -0.92591 | 10336 ft | 310 kts | 216° |
| 2026-04-26 17:12 | 44.01718 | -0.94244 | 10221 ft | 297 kts | 216° |
| 2026-04-26 17:13 | 43.98377 | -0.97408 | 9619 ft | 285 kts | 216° |
| 2026-04-26 17:13 | 43.96749 | -0.98949 | 9258 ft | 282 kts | 216° |
| 2026-04-26 17:13 | 43.93539 | -1.01983 | 8545 ft | 277 kts | 216° |
| 2026-04-26 17:14 | 43.91957 | -1.03477 | 8183 ft | 274 kts | 216° |
| 2026-04-26 17:14 | 43.88823 | -1.06431 | 7485 ft | 270 kts | 216° |
| 2026-04-26 17:14 | 43.87274 | -1.07890 | 7134 ft | 269 kts | 216° |
| 2026-04-26 17:15 | 43.84195 | -1.10789 | 6425 ft | 266 kts | 215° |
| 2026-04-26 17:15 | 43.82666 | -1.12227 | 6070 ft | 265 kts | 216° |
| 2026-04-26 17:15 | 43.81147 | -1.13656 | 5719 ft | 263 kts | 215° |
| 2026-04-26 17:16 | 43.79637 | -1.15075 | 5325 ft | 263 kts | 215° |
| 2026-04-26 17:16 | 43.78106 | -1.16515 | 4868 ft | 266 kts | 215° |
| 2026-04-26 17:16 | 43.76582 | -1.17945 | 4513 ft | 264 kts | 215° |
| 2026-04-26 17:16 | 43.75006 | -1.19232 | 4161 ft | 262 kts | 205° |
| 2026-04-26 17:17 | 43.73272 | -1.19994 | 3813 ft | 262 kts | 191° |
| 2026-04-26 17:17 | 43.71475 | -1.20404 | 3462 ft | 261 kts | 190° |
| 2026-04-26 17:17 | 43.69691 | -1.20823 | 3108 ft | 259 kts | 191° |
| 2026-04-26 17:17 | 43.67917 | -1.21251 | 2762 ft | 258 kts | 191° |
| 2026-04-26 17:18 | 43.66171 | -1.21674 | 2600 ft | 256 kts | 191° |
| 2026-04-26 17:18 | 43.64462 | -1.22088 | 2513 ft | 249 kts | 191° |
| 2026-04-26 17:18 | 43.62777 | -1.22495 | 2499 ft | 235 kts | 191° |
| 2026-04-26 17:18 | 43.61216 | -1.22871 | 2497 ft | 224 kts | 191° |
| 2026-04-26 17:19 | 43.58074 | -1.23625 | 2497 ft | 228 kts | 190° |
| 2026-04-26 17:19 | 43.56508 | -1.23996 | 2501 ft | 229 kts | 190° |
| 2026-04-26 17:19 | 43.54938 | -1.24368 | 2499 ft | 229 kts | 191° |
| 2026-04-26 17:20 | 43.53373 | -1.24737 | 2497 ft | 224 kts | 191° |
| 2026-04-26 17:20 | 43.52378 | -1.24969 | 2493 ft | 213 kts | 190° |
| 2026-04-26 17:20 | 43.50495 | -1.25406 | 2527 ft | 195 kts | 190° |
| 2026-04-26 17:20 | 43.49208 | -1.25704 | 2497 ft | 187 kts | 191° |
| 2026-04-26 17:21 | 43.47950 | -1.26155 | 2488 ft | 184 kts | 211° |
| 2026-04-26 17:21 | 43.47128 | -1.27463 | 2501 ft | 185 kts | 251° |
| 2026-04-26 17:21 | 43.46997 | -1.29203 | 2502 ft | 184 kts | 271° |
| 2026-04-26 17:21 | 43.47020 | -1.30887 | 2491 ft | 164 kts | 272° |
| 2026-04-26 17:22 | 43.47048 | -1.32342 | 2500 ft | 145 kts | 271° |
| 2026-04-26 17:22 | 43.47048 | -1.33773 | 2496 ft | 151 kts | 269° |
| 2026-04-26 17:22 | 43.47031 | -1.35211 | 2448 ft | 151 kts | 270° |
| 2026-04-26 17:22 | 43.47014 | -1.36650 | 2259 ft | 149 kts | 270° |
| 2026-04-26 17:23 | 43.46998 | -1.38077 | 2066 ft | 148 kts | 270° |
| 2026-04-26 17:23 | 43.46981 | -1.39477 | 1873 ft | 148 kts | 270° |
| 2026-04-26 17:23 | 43.46965 | -1.40895 | 1673 ft | 148 kts | 270° |
| 2026-04-26 17:23 | 43.46949 | -1.42325 | 1477 ft | 148 kts | 270° |
| 2026-04-26 17:24 | 43.46933 | -1.43692 | 1287 ft | 137 kts | 270° |
| 2026-04-26 17:24 | 43.46918 | -1.44957 | 1104 ft | 128 kts | 270° |
| 2026-04-26 17:24 | 43.46902 | -1.46205 | 931 ft | 134 kts | 270° |
| 2026-04-26 17:24 | 43.46877 | -1.47479 | 712 ft | 131 kts | 272° |
| 2026-04-26 17:25 | 43.46870 | -1.48709 | 544 ft | 128 kts | 274° |
| 2026-04-26 17:25 | 43.46865 | -1.49930 | 398 ft | 131 kts | 271° |
| 2026-04-26 17:25 | 43.46850 | -1.51195 | 273 ft | 131 kts | 272° |
| 2026-04-26 17:25 | 43.46840 | -1.52304 | 248 ft | 88 kts | 269° |
| 2026-04-26 17:26 | 43.46834 | -1.52873 | 248 ft | 31 kts | 269° |
| 2026-04-26 17:26 | 43.46833 | -1.53027 | 249 ft | 11 kts | 269° |
| 2026-04-26 17:26 | 43.46851 | -1.53131 | 248 ft | 12 kts | 324° |
| 2026-04-26 17:26 | 43.46922 | -1.53177 | 246 ft | 7 kts | 334° |
| 2026-04-26 17:27 | 43.46932 | -1.53183 | 246 ft | 2 kts | 334° |
| 2026-04-26 17:27 | 43.46968 | -1.53204 | 246 ft | 8 kts | 345° |
| 2026-04-26 17:27 | 43.47029 | -1.53178 | 246 ft | 11 kts | 40° |
| 2026-04-26 17:27 | 43.47046 | -1.53143 | 246 ft | 0 kts | 65° |
| 2026-04-26 17:28 | 43.47053 | -1.53140 | 246 ft | 4 kts | 20° |
| 2026-04-26 17:28 | 43.47102 | -1.53121 | 246 ft | 5 kts | 18° |
| 2026-04-26 17:28 | 43.47115 | -1.53115 | 246 ft | 1 kts | 19° |
| 2026-04-26 17:29 | 43.47117 | -1.53114 | 246 ft | 0 kts | 19° |